createdAt,value
2019-02-19T00:25:41.392Z,33.53
2019-02-19T00:59:25.915Z,30.90
2019-02-19T01:01:55.299Z,30.23
2019-02-19T01:04:24.526Z,27.57
2019-02-19T01:06:53.573Z,25.20
2019-02-19T01:09:22.661Z,27.53
2019-02-19T01:11:51.843Z,25.83
2019-02-19T01:14:20.963Z,25.67
2019-02-19T01:16:50.126Z,27.73
2019-02-19T01:19:19.285Z,22.90
2019-02-19T01:21:48.699Z,33.30
2019-02-19T01:24:17.802Z,29.27
2019-02-19T01:26:47.118Z,35.40
2019-02-19T01:29:16.629Z,27.30
2019-02-19T01:31:45.687Z,29.60
2019-02-19T01:34:14.798Z,29.27
2019-02-19T01:36:43.861Z,37.70
2019-02-19T01:39:13.070Z,27.20
2019-02-19T01:41:42.403Z,37.73
2019-02-19T01:44:11.483Z,31.27
2019-02-19T01:46:40.756Z,28.20
2019-02-19T01:49:09.964Z,29.67
2019-02-19T01:51:39.259Z,31.17
2019-02-19T01:54:08.507Z,36.90
2019-02-19T01:56:37.603Z,27.83
2019-02-19T01:59:06.762Z,29.23
2019-02-19T02:01:36.205Z,24.60
2019-02-19T02:04:05.391Z,30.67
2019-02-19T02:06:34.584Z,31.27
2019-02-19T02:09:05.591Z,33.20
2019-02-19T02:11:34.990Z,26.60
2019-02-19T02:14:04.161Z,26.80
2019-02-19T02:16:33.384Z,28.10
2019-02-19T02:19:02.592Z,27.97
2019-02-19T02:21:31.981Z,28.87
2019-02-19T02:24:01.076Z,27.97
2019-02-19T02:26:30.215Z,25.07
2019-02-19T02:28:59.542Z,23.87
2019-02-19T02:31:28.726Z,26.60
2019-02-19T02:33:57.950Z,22.23
2019-02-19T02:36:27.080Z,23.70
2019-02-19T02:38:56.286Z,23.73
2019-02-19T02:41:25.650Z,19.57
2019-02-19T02:43:54.805Z,20.70
2019-02-19T02:46:24.067Z,23.33
2019-02-19T02:48:53.360Z,25.77
2019-02-19T02:51:22.498Z,28.23
2019-02-19T02:53:51.766Z,26.33
2019-02-19T02:56:20.914Z,24.77
2019-02-19T02:58:50.211Z,28.13
2019-02-19T03:01:19.316Z,26.93
2019-02-19T03:03:48.657Z,28.03
2019-02-19T03:06:29.368Z,26.70
2019-02-19T03:08:58.822Z,24.20
2019-02-19T03:11:27.939Z,19.87
2019-02-19T03:13:57.146Z,20.73
2019-02-19T03:16:26.436Z,25.10
2019-02-19T03:18:55.679Z,20.00
2019-02-19T03:21:24.933Z,22.30
2019-02-19T03:23:54.030Z,24.87
2019-02-19T03:26:23.256Z,21.17
2019-02-19T03:28:52.481Z,20.73
2019-02-19T03:31:21.739Z,24.17
2019-02-19T03:33:50.933Z,26.30
2019-02-19T03:36:20.059Z,21.57
2019-02-19T03:38:49.481Z,22.33
2019-02-19T03:41:18.628Z,22.50
2019-02-19T03:43:47.714Z,21.90
2019-02-19T03:46:17.035Z,22.67
2019-02-19T03:48:46.122Z,22.60
2019-02-19T03:51:15.567Z,20.87
2019-02-19T03:53:44.780Z,21.10
2019-02-19T03:56:13.975Z,19.50
2019-02-19T03:58:43.135Z,22.23
2019-02-19T04:01:12.319Z,20.50
2019-02-19T04:03:41.833Z,25.50
2019-02-19T04:06:10.963Z,21.97
2019-02-19T04:08:40.055Z,26.10
2019-02-19T04:11:09.264Z,21.53
2019-02-19T04:13:38.504Z,23.10
2019-02-19T04:16:07.737Z,25.33
2019-02-19T04:18:36.888Z,22.37
2019-02-19T04:21:06.164Z,23.97
2019-02-19T04:23:37.618Z,23.27
2019-02-19T04:26:06.706Z,25.90
2019-02-19T04:28:35.808Z,23.67
2019-02-19T04:31:05.058Z,24.20
2019-02-19T04:33:34.358Z,24.50
2019-02-19T04:36:03.655Z,22.33
2019-02-19T04:38:32.878Z,20.07
2019-02-19T04:41:02.077Z,20.07
2019-02-19T04:43:31.154Z,25.10
2019-02-19T04:46:00.311Z,18.10
2019-02-19T04:48:29.479Z,20.47
2019-02-19T04:50:58.751Z,23.50
2019-02-19T04:53:27.966Z,19.10
2019-02-19T04:55:57.350Z,22.87
2019-02-19T04:58:26.394Z,23.93
2019-02-19T05:00:55.669Z,23.83
2019-02-19T05:03:24.987Z,23.40
2019-02-19T05:05:55.905Z,25.77
2019-02-19T05:08:25.207Z,20.60
2019-02-19T05:10:54.311Z,20.13
2019-02-19T05:13:23.606Z,20.53
2019-02-19T05:15:54.861Z,23.70
2019-02-19T05:18:24.125Z,31.83
2019-02-19T05:20:53.368Z,23.10
2019-02-19T05:23:22.468Z,21.00
2019-02-19T05:25:51.911Z,21.37
2019-02-19T05:28:21.078Z,25.23
2019-02-19T05:30:50.229Z,22.63
2019-02-19T05:33:19.498Z,25.53
2019-02-19T05:35:48.679Z,19.97
2019-02-19T05:38:17.855Z,21.83
2019-02-19T05:40:47.108Z,24.83
2019-02-19T05:43:16.222Z,24.87
2019-02-19T05:45:45.511Z,23.80
2019-02-19T05:48:14.628Z,20.73
2019-02-19T05:50:43.845Z,21.17
2019-02-19T05:53:13.307Z,30.50
2019-02-19T05:55:42.446Z,19.60
2019-02-19T05:58:11.603Z,20.60
2019-02-19T06:00:40.908Z,20.80
2019-02-19T06:03:10.226Z,21.63
2019-02-19T06:05:39.345Z,21.33
2019-02-19T06:08:08.580Z,23.43
2019-02-19T06:10:37.809Z,21.30
2019-02-19T06:13:07.565Z,17.73
2019-02-19T06:15:36.630Z,20.33
2019-02-19T06:18:06.267Z,21.53
2019-02-19T06:20:35.613Z,19.27
2019-02-19T06:23:04.746Z,20.77
2019-02-19T06:25:33.960Z,19.80
2019-02-19T06:28:03.288Z,22.10
2019-02-19T06:30:32.373Z,18.80
2019-02-19T06:33:01.833Z,23.10
2019-02-19T06:35:31.042Z,20.97
2019-02-19T06:38:00.296Z,19.90
2019-02-19T06:40:30.227Z,25.80
2019-02-19T06:42:59.755Z,18.70
2019-02-19T06:45:29.027Z,20.37
2019-02-19T06:47:58.137Z,22.40
2019-02-19T06:50:27.237Z,26.33
2019-02-19T06:52:56.519Z,24.87
2019-02-19T06:55:25.702Z,25.57
2019-02-19T06:57:54.895Z,33.60
2019-02-19T07:00:24.351Z,35.73
2019-02-19T07:03:01.243Z,31.13
2019-02-19T07:05:30.346Z,39.53
2019-02-19T07:07:59.612Z,42.10
2019-02-19T07:10:28.949Z,32.53
2019-02-19T07:12:58.204Z,18.33
2019-02-19T07:15:27.323Z,24.27
2019-02-19T07:17:56.582Z,25.97
2019-02-19T07:20:25.835Z,21.30
2019-02-19T07:22:55.130Z,21.13
2019-02-19T07:25:24.228Z,20.90
2019-02-19T07:27:53.434Z,20.07
2019-02-19T07:30:22.538Z,21.30
2019-02-19T07:32:51.945Z,16.73
2019-02-19T07:35:21.040Z,18.20
2019-02-19T07:37:51.151Z,19.13
2019-02-19T07:40:20.395Z,20.10
2019-02-19T07:42:49.917Z,19.50
2019-02-19T07:45:21.004Z,20.00
2019-02-19T07:47:50.359Z,17.63
2019-02-19T07:50:19.515Z,20.93
2019-02-19T07:52:48.620Z,17.53
2019-02-19T07:55:17.760Z,16.27
2019-02-19T07:57:50.023Z,20.97
2019-02-19T08:00:19.275Z,15.40
2019-02-19T08:02:48.620Z,18.47
2019-02-19T08:05:17.962Z,20.23
2019-02-19T08:07:47.094Z,21.83
2019-02-19T08:10:16.196Z,22.97
2019-02-19T08:12:45.351Z,18.00
2019-02-19T08:15:14.952Z,19.97
2019-02-19T08:17:44.587Z,17.97
2019-02-19T08:20:16.174Z,17.97
2019-02-19T08:22:45.065Z,23.47
2019-02-19T08:25:14.275Z,26.87
2019-02-19T08:27:43.623Z,21.70
2019-02-19T08:30:12.763Z,23.93
2019-02-19T08:32:42.023Z,23.90
2019-02-19T08:35:11.488Z,33.07
2019-02-19T08:37:40.606Z,28.03
2019-02-19T08:40:10.117Z,26.63
2019-02-19T08:42:39.235Z,24.73
2019-02-19T08:45:08.894Z,32.77
2019-02-19T08:47:42.628Z,23.30
2019-02-19T08:50:09.362Z,23.03
2019-02-19T08:52:38.682Z,31.10
2019-02-19T08:55:07.923Z,21.97
2019-02-19T08:57:37.123Z,28.40
2019-02-19T09:00:07.612Z,26.30
2019-02-19T09:02:36.702Z,24.20
2019-02-19T09:05:06.037Z,28.93
2019-02-19T09:07:35.185Z,18.87
2019-02-19T09:10:04.457Z,23.53
2019-02-19T09:12:33.538Z,17.43
2019-02-19T09:15:02.599Z,15.43
2019-02-19T09:17:32.161Z,13.60
2019-02-19T09:20:01.296Z,13.73
2019-02-19T09:22:30.431Z,12.67
2019-02-19T09:24:59.510Z,14.60
2019-02-19T09:27:28.662Z,11.77
2019-02-19T09:29:58.075Z,15.40
2019-02-19T09:32:27.237Z,15.60
2019-02-19T09:34:56.485Z,15.43
2019-02-19T09:37:25.670Z,15.77
2019-02-19T09:39:54.796Z,13.17
2019-02-19T09:42:24.131Z,12.77
2019-02-19T09:44:53.231Z,14.93
2019-02-19T09:47:22.568Z,12.37
2019-02-19T09:49:51.723Z,13.17
2019-02-19T09:52:20.947Z,13.57
2019-02-19T09:54:50.145Z,18.53
2019-02-19T09:57:19.404Z,12.30
2019-02-19T09:59:48.589Z,18.40
2019-02-19T10:02:17.761Z,13.73
2019-02-19T10:04:47.063Z,16.20
2019-02-19T10:07:16.391Z,14.10
2019-02-19T10:09:45.503Z,11.53
2019-02-19T10:12:14.894Z,16.30
2019-02-19T10:14:44.047Z,12.53
2019-02-19T10:17:13.203Z,12.33
2019-02-19T10:19:42.362Z,13.50
2019-02-19T10:22:11.520Z,19.13
2019-02-19T10:24:40.689Z,12.30
2019-02-19T10:27:09.976Z,13.63
2019-02-19T10:29:39.216Z,12.40
2019-02-19T10:32:08.863Z,13.83
2019-02-19T10:34:37.988Z,14.67
2019-02-19T10:37:07.107Z,12.33
2019-02-19T10:39:36.398Z,13.00
2019-02-19T10:42:05.473Z,15.27
2019-02-19T10:44:34.713Z,11.07
2019-02-19T10:47:03.929Z,17.63
2019-02-19T10:49:33.148Z,11.33
2019-02-19T10:52:02.471Z,12.67
2019-02-19T10:54:31.736Z,15.70
2019-02-19T10:57:01.103Z,12.90
2019-02-19T10:59:30.458Z,15.07
2019-02-19T11:01:59.581Z,13.93
2019-02-19T11:04:28.687Z,13.27
2019-02-19T11:06:57.791Z,13.07
2019-02-19T11:09:26.889Z,14.93
2019-02-19T11:11:58.077Z,14.60
2019-02-19T11:14:27.229Z,16.60
2019-02-19T11:16:56.321Z,13.43
2019-02-19T11:20:11.160Z,14.37
2019-02-19T11:37:33.637Z,14.23
2019-02-19T11:53:41.468Z,16.10
2019-02-19T11:56:10.855Z,13.90
2019-02-19T11:58:40.251Z,16.63
2019-02-19T12:01:10.351Z,16.10
2019-02-19T12:03:39.580Z,14.60
2019-02-19T12:06:08.849Z,15.40
2019-02-19T12:08:39.251Z,20.60
2019-02-19T12:11:08.526Z,23.30
2019-02-19T12:13:40.592Z,15.70
2019-02-19T12:16:09.711Z,16.03
2019-02-19T12:18:45.916Z,19.10
2019-02-19T12:21:10.706Z,14.93
2019-02-19T12:23:40.251Z,17.17
2019-02-19T12:26:09.660Z,17.50
2019-02-19T12:28:38.760Z,18.97
2019-02-19T12:31:07.889Z,20.43
2019-02-19T12:33:37.036Z,15.90
2019-02-19T12:36:06.198Z,17.97
2019-02-19T12:38:35.337Z,15.43
2019-02-19T12:41:04.792Z,16.40
2019-02-19T12:43:34.015Z,16.13
2019-02-19T12:46:03.116Z,18.20
2019-02-19T12:48:32.532Z,15.47
2019-02-19T12:51:01.919Z,16.83
2019-02-19T12:53:31.195Z,15.70
2019-02-19T12:56:00.436Z,18.40
2019-02-19T12:58:31.575Z,17.87
2019-02-19T13:01:00.819Z,16.90
2019-02-19T13:03:30.172Z,19.73
2019-02-19T13:05:59.706Z,19.50
2019-02-19T13:08:29.006Z,16.37
2019-02-19T13:10:58.238Z,16.00
2019-02-19T13:13:27.332Z,16.00
2019-02-19T13:15:56.622Z,17.43
2019-02-19T13:18:26.073Z,17.53
2019-02-19T13:20:55.272Z,16.13
2019-02-19T13:23:24.379Z,14.90
2019-02-19T13:25:53.441Z,17.77
2019-02-19T13:28:22.839Z,17.80
2019-02-19T13:34:23.427Z,22.37
2019-02-19T13:36:52.885Z,21.13
2019-02-19T13:39:22.327Z,16.50
2019-02-19T13:41:51.485Z,16.23
2019-02-19T13:44:20.727Z,16.57
2019-02-19T13:46:50.241Z,17.50
2019-02-19T13:49:19.337Z,16.57
2019-02-19T13:51:48.622Z,18.17
2019-02-19T13:54:31.881Z,17.67
2019-02-19T13:57:01.364Z,18.07
2019-02-19T13:59:30.579Z,15.53
2019-02-19T14:02:00.058Z,21.07
2019-02-19T14:04:29.175Z,16.60
2019-02-19T14:06:59.282Z,18.10
2019-02-19T14:09:28.522Z,26.60
2019-02-19T14:11:57.839Z,19.63
2019-02-19T14:14:55.208Z,17.77
2019-02-19T14:17:24.704Z,26.00
2019-02-19T14:19:58.598Z,19.17
2019-02-19T14:22:46.655Z,19.23
2019-02-19T14:25:40.459Z,20.47
2019-02-19T14:28:27.326Z,20.40
2019-02-19T14:31:24.590Z,18.17
2019-02-19T14:34:15.609Z,17.67
2019-02-19T14:37:06.899Z,18.13
2019-02-19T14:39:58.016Z,20.67
2019-02-19T14:42:46.209Z,23.57
2019-02-19T14:45:34.314Z,19.47
2019-02-19T14:48:31.979Z,18.03
2019-02-19T14:51:38.558Z,16.60
2019-02-19T14:54:25.477Z,20.20
2019-02-19T14:57:25.392Z,18.50
2019-02-19T15:00:12.455Z,20.27
2019-02-19T15:02:59.766Z,18.57
2019-02-19T15:05:46.826Z,17.93
2019-02-19T15:08:48.257Z,20.70
2019-02-19T15:11:39.484Z,19.63
2019-02-19T15:14:21.725Z,20.17
2019-02-19T15:17:08.554Z,26.43
2019-02-19T15:19:49.805Z,20.47
2019-02-19T15:22:29.678Z,24.00
2019-02-19T15:25:12.332Z,22.10
2019-02-19T15:28:10.602Z,19.10
2019-02-19T15:30:53.827Z,20.27
2019-02-19T15:33:39.819Z,22.93
2019-02-19T15:36:28.167Z,19.43
2019-02-19T15:39:19.121Z,29.27
2019-02-19T15:42:13.286Z,21.77
2019-02-19T15:45:12.108Z,25.20
2019-02-19T15:47:59.570Z,21.23
2019-02-19T15:50:47.636Z,20.53
2019-02-19T15:53:38.929Z,19.67
2019-02-19T15:56:36.423Z,20.50
2019-02-19T15:59:23.196Z,21.63
2019-02-19T16:02:20.404Z,22.57
2019-02-19T16:05:17.688Z,20.60
2019-02-19T16:08:15.784Z,21.67
2019-02-19T16:10:58.782Z,24.50
2019-02-19T16:13:50.229Z,20.73
2019-02-19T16:16:39.080Z,23.40
2019-02-19T16:19:16.081Z,23.87
2019-02-19T16:21:53.311Z,20.80
2019-02-19T16:24:41.084Z,23.30
2019-02-19T16:27:28.100Z,20.60
2019-02-19T16:30:06.853Z,18.43
2019-02-19T16:32:53.555Z,20.13
2019-02-19T16:35:43.584Z,19.37
2019-02-19T16:38:25.944Z,28.90
2019-02-19T16:41:05.289Z,19.67
2019-02-19T16:43:57.723Z,24.30
2019-02-19T16:46:44.671Z,23.50
2019-02-19T16:49:35.642Z,26.37
2019-02-19T16:52:29.519Z,22.23
2019-02-19T16:55:17.747Z,23.67
2019-02-19T16:58:03.077Z,23.23
2019-02-19T17:00:37.647Z,25.63
2019-02-19T17:03:29.081Z,26.93
2019-02-19T17:06:26.265Z,25.63
2019-02-19T17:09:17.526Z,28.03
2019-02-19T17:12:05.573Z,34.23
2019-02-19T17:14:57.468Z,28.40
2019-02-19T17:17:45.570Z,27.77
2019-02-19T17:20:30.528Z,29.23
2019-02-19T17:23:08.940Z,30.90
2019-02-19T17:25:55.965Z,33.90
2019-02-19T17:28:37.128Z,26.57
2019-02-19T17:31:15.057Z,26.27
2019-02-19T17:33:57.090Z,27.73
2019-02-19T17:36:46.062Z,38.40
2019-02-19T17:39:37.637Z,53.70
2019-02-19T17:42:11.883Z,29.50
2019-02-19T17:45:12.680Z,24.90
2019-02-19T17:48:03.524Z,33.00
2019-02-19T17:50:57.157Z,32.23
2019-02-19T17:53:54.753Z,27.73
2019-02-19T17:56:33.368Z,29.23
2019-02-19T17:59:13.271Z,28.80
2019-02-19T18:02:05.846Z,32.23
2019-02-19T18:05:03.319Z,30.30
2019-02-19T18:07:55.533Z,25.07
2019-02-19T18:10:44.556Z,27.00
2019-02-19T18:13:31.914Z,28.60
2019-02-19T18:16:23.674Z,40.37
2019-02-19T18:18:53.903Z,44.47
2019-02-19T18:21:23.995Z,34.80
2019-02-19T18:23:53.271Z,30.70
2019-02-19T18:26:23.164Z,46.10
2019-02-19T18:28:52.856Z,43.23
2019-02-19T18:31:22.402Z,37.10
2019-02-19T18:33:51.651Z,36.10
2019-02-19T18:36:21.700Z,40.57
2019-02-19T18:38:51.433Z,36.33
2019-02-19T18:41:20.627Z,38.73
2019-02-19T18:43:51.404Z,32.23
2019-02-19T18:46:21.083Z,35.90
2019-02-19T18:48:51.404Z,36.40
2019-02-19T18:51:21.053Z,40.27
2019-02-19T18:53:50.519Z,48.53
2019-02-19T18:56:20.579Z,38.27
2019-02-19T18:58:49.877Z,31.93
2019-02-19T19:01:20.770Z,33.33
2019-02-19T19:03:52.639Z,35.27
2019-02-19T19:06:22.499Z,36.17
2019-02-19T19:08:52.222Z,37.93
2019-02-19T19:11:22.878Z,40.63
2019-02-19T19:13:52.085Z,31.80
2019-02-19T19:16:21.271Z,39.97
2019-02-19T19:18:50.601Z,31.80
2019-02-19T19:21:19.853Z,37.60
2019-02-19T19:23:49.225Z,27.17
2019-02-19T19:26:18.478Z,35.40
2019-02-19T19:28:47.634Z,43.20
2019-02-19T19:31:16.779Z,37.03
2019-02-19T19:33:46.487Z,44.97
2019-02-19T19:36:15.830Z,40.40
2019-02-19T19:38:45.099Z,46.03
2019-02-19T19:41:15.290Z,47.73
2019-02-19T19:43:44.516Z,43.30
2019-02-19T19:46:14.159Z,41.70
2019-02-19T19:48:45.890Z,36.90
2019-02-19T19:51:17.324Z,49.03
2019-02-19T19:53:45.675Z,35.33
2019-02-19T19:56:14.814Z,34.77
2019-02-19T19:58:44.190Z,35.10
2019-02-19T20:01:13.405Z,37.70
2019-02-19T20:03:42.657Z,37.60
2019-02-19T20:06:11.874Z,42.53
2019-02-19T20:08:41.246Z,40.93
2019-02-19T20:11:10.540Z,43.67
2019-02-19T20:13:40.412Z,43.10
2019-02-19T20:16:09.580Z,41.97
2019-02-19T20:18:39.436Z,42.23
2019-02-19T20:21:08.826Z,43.63
2019-02-19T20:23:38.098Z,43.17
2019-02-19T20:26:07.501Z,35.33
2019-02-19T20:28:36.867Z,31.50
2019-02-19T20:31:06.368Z,27.47
2019-02-19T20:33:37.295Z,30.23
2019-02-19T20:36:06.873Z,30.37
2019-02-19T20:38:36.212Z,32.03
2019-02-19T20:41:06.164Z,37.27
2019-02-19T20:43:35.514Z,34.30
2019-02-19T20:46:04.969Z,30.73
2019-02-19T20:48:34.123Z,41.07
2019-02-19T20:51:03.370Z,38.90
2019-02-19T20:53:32.479Z,51.10
2019-02-19T20:56:01.886Z,44.10
2019-02-19T20:58:31.130Z,51.87
2019-02-19T21:01:00.315Z,43.53
2019-02-19T21:03:33.469Z,36.20
2019-02-19T21:06:03.698Z,37.50
2019-02-19T21:08:33.046Z,36.47
2019-02-19T21:11:02.295Z,34.53
2019-02-19T21:13:32.113Z,34.90
2019-02-19T21:16:02.132Z,33.70
2019-02-19T21:18:31.854Z,38.17
2019-02-19T21:21:01.020Z,40.63
2019-02-19T21:23:30.338Z,37.37
2019-02-19T21:25:59.521Z,40.77
2019-02-19T21:28:28.734Z,43.63
2019-02-19T21:30:58.747Z,41.57
2019-02-19T21:33:27.868Z,42.83
2019-02-19T21:35:58.047Z,40.20
2019-02-19T21:38:27.422Z,43.37
2019-02-19T21:40:56.550Z,39.37
2019-02-19T21:43:25.746Z,43.00
2019-02-19T21:45:55.010Z,41.13
2019-02-19T21:48:25.154Z,41.70
2019-02-19T21:50:54.351Z,32.87
2019-02-19T21:53:23.655Z,34.47
2019-02-19T21:55:52.850Z,37.60
2019-02-19T21:58:21.970Z,39.63
2019-02-19T22:00:51.160Z,36.70
2019-02-19T22:03:20.688Z,37.23
2019-02-19T22:05:49.905Z,36.43
2019-02-19T22:08:19.105Z,40.70
2019-02-19T22:10:48.388Z,39.93
2019-02-19T22:13:17.707Z,38.03
2019-02-19T22:15:46.962Z,37.77
2019-02-19T22:18:16.260Z,40.27
2019-02-19T22:20:52.673Z,39.57
2019-02-19T22:23:22.356Z,39.23
2019-02-19T22:25:51.598Z,41.83
2019-02-19T22:28:22.862Z,38.40
2019-02-19T22:30:51.773Z,38.20
2019-02-19T22:33:21.489Z,36.43
2019-02-19T22:35:51.028Z,39.50
2019-02-19T22:38:20.372Z,37.67
2019-02-19T22:40:55.149Z,37.57
2019-02-19T22:43:20.712Z,41.90
2019-02-19T22:45:49.825Z,37.87
2019-02-19T22:48:19.409Z,40.37
2019-02-19T22:50:48.641Z,35.77
2019-02-19T22:53:35.336Z,37.17
2019-02-19T22:56:10.091Z,36.40
2019-02-19T22:58:39.488Z,34.47
2019-02-19T23:01:15.118Z,38.00
2019-02-19T23:03:44.551Z,37.93
2019-02-19T23:06:13.893Z,40.00
2019-02-19T23:08:43.106Z,42.40
2019-02-19T23:11:12.268Z,44.33
2019-02-19T23:13:41.785Z,40.90
2019-02-19T23:16:10.925Z,46.07
2019-02-19T23:18:40.056Z,36.63
2019-02-19T23:21:09.270Z,39.47
2019-02-19T23:23:38.433Z,43.07
2019-02-19T23:26:07.644Z,45.23
2019-02-19T23:28:36.988Z,44.30
2019-02-19T23:31:06.163Z,41.73
2019-02-19T23:33:35.403Z,42.60
2019-02-19T23:36:09.199Z,47.03
2019-02-19T23:38:38.525Z,39.60
2019-02-19T23:41:08.008Z,35.43
2019-02-19T23:43:37.303Z,37.40
2019-02-19T23:46:06.680Z,35.67
2019-02-19T23:48:35.795Z,31.80
2019-02-19T23:51:04.912Z,33.03
2019-02-19T23:53:34.386Z,38.33
2019-02-19T23:56:03.459Z,31.93
2019-02-19T23:58:32.536Z,37.80
